sensor_id;sensor_type;location;lat;lon;timestamp;P1;durP1;ratioP1;P2;durP2;ratioP2
77174;SDS011;66153;53.488;10.244;2022-12-26T00:02:35;21.33;;;7.78;;
77174;SDS011;66153;53.488;10.244;2022-12-26T00:05:59;23.95;;;8.52;;
77174;SDS011;66153;53.488;10.244;2022-12-26T00:09:23;21.70;;;8.57;;
77174;SDS011;66153;53.488;10.244;2022-12-26T00:12:47;32.92;;;8.15;;
77174;SDS011;66153;53.488;10.244;2022-12-26T00:16:12;26.33;;;6.28;;
77174;SDS011;66153;53.488;10.244;2022-12-26T00:19:36;28.73;;;6.30;;
77174;SDS011;66153;53.488;10.244;2022-12-26T00:23:00;15.40;;;5.63;;
77174;SDS011;66153;53.488;10.244;2022-12-26T00:26:27;24.50;;;5.60;;
77174;SDS011;66153;53.488;10.244;2022-12-26T00:29:50;33.42;;;6.63;;
77174;SDS011;66153;53.488;10.244;2022-12-26T00:33:14;36.20;;;6.40;;
77174;SDS011;66153;53.488;10.244;2022-12-26T00:36:38;40.42;;;5.20;;
77174;SDS011;66153;53.488;10.244;2022-12-26T00:40:02;34.72;;;5.10;;
77174;SDS011;66153;53.488;10.244;2022-12-26T00:43:26;27.73;;;5.85;;
77174;SDS011;66153;53.488;10.244;2022-12-26T00:46:50;62.80;;;8.43;;
77174;SDS011;66153;53.488;10.244;2022-12-26T00:50:14;77.63;;;9.27;;
77174;SDS011;66153;53.488;10.244;2022-12-26T00:53:38;70.53;;;7.90;;
77174;SDS011;66153;53.488;10.244;2022-12-26T00:57:02;138.43;;;14.68;;
77174;SDS011;66153;53.488;10.244;2022-12-26T01:00:26;108.15;;;11.50;;
77174;SDS011;66153;53.488;10.244;2022-12-26T01:03:50;58.28;;;7.10;;
77174;SDS011;66153;53.488;10.244;2022-12-26T01:07:14;53.70;;;7.18;;
77174;SDS011;66153;53.488;10.244;2022-12-26T01:10:42;88.32;;;9.05;;
77174;SDS011;66153;53.488;10.244;2022-12-26T01:14:08;69.00;;;8.25;;
77174;SDS011;66153;53.488;10.244;2022-12-26T01:17:32;40.83;;;8.63;;
77174;SDS011;66153;53.488;10.244;2022-12-26T01:21:00;51.95;;;9.23;;
77174;SDS011;66153;53.488;10.244;2022-12-26T01:24:25;57.08;;;9.60;;
77174;SDS011;66153;53.488;10.244;2022-12-26T01:27:49;58.70;;;10.52;;
77174;SDS011;66153;53.488;10.244;2022-12-26T01:31:13;101.38;;;10.15;;
77174;SDS011;66153;53.488;10.244;2022-12-26T01:34:37;47.53;;;7.78;;
77174;SDS011;66153;53.488;10.244;2022-12-26T01:38:00;69.68;;;8.82;;
77174;SDS011;66153;53.488;10.244;2022-12-26T01:41:24;55.47;;;7.82;;
77174;SDS011;66153;53.488;10.244;2022-12-26T01:44:57;53.67;;;6.85;;
77174;SDS011;66153;53.488;10.244;2022-12-26T01:48:23;44.08;;;6.97;;
77174;SDS011;66153;53.488;10.244;2022-12-26T01:52:01;54.90;;;8.65;;
77174;SDS011;66153;53.488;10.244;2022-12-26T01:55:27;34.72;;;7.95;;
77174;SDS011;66153;53.488;10.244;2022-12-26T01:58:55;115.68;;;13.75;;
77174;SDS011;66153;53.488;10.244;2022-12-26T02:02:21;46.72;;;8.23;;
77174;SDS011;66153;53.488;10.244;2022-12-26T02:06:04;42.53;;;7.43;;
77174;SDS011;66153;53.488;10.244;2022-12-26T02:09:29;46.65;;;9.38;;
77174;SDS011;66153;53.488;10.244;2022-12-26T02:12:53;79.97;;;12.02;;
77174;SDS011;66153;53.488;10.244;2022-12-26T02:16:17;44.28;;;8.30;;
77174;SDS011;66153;53.488;10.244;2022-12-26T02:19:46;51.28;;;9.20;;
77174;SDS011;66153;53.488;10.244;2022-12-26T02:23:46;46.72;;;8.65;;
77174;SDS011;66153;53.488;10.244;2022-12-26T02:27:20;45.22;;;8.52;;
77174;SDS011;66153;53.488;10.244;2022-12-26T02:34:47;44.47;;;7.30;;
77174;SDS011;66153;53.488;10.244;2022-12-26T02:38:46;60.50;;;7.90;;
77174;SDS011;66153;53.488;10.244;2022-12-26T02:42:23;42.30;;;9.00;;
77174;SDS011;66153;53.488;10.244;2022-12-26T02:46:12;56.03;;;8.73;;
77174;SDS011;66153;53.488;10.244;2022-12-26T02:58:23;61.97;;;8.55;;
77174;SDS011;66153;53.488;10.244;2022-12-26T03:02:06;65.20;;;8.20;;
77174;SDS011;66153;53.488;10.244;2022-12-26T03:06:01;46.75;;;7.93;;
77174;SDS011;66153;53.488;10.244;2022-12-26T03:09:45;38.90;;;6.65;;
77174;SDS011;66153;53.488;10.244;2022-12-26T03:13:30;51.42;;;9.13;;
77174;SDS011;66153;53.488;10.244;2022-12-26T03:17:00;38.72;;;6.72;;
77174;SDS011;66153;53.488;10.244;2022-12-26T03:20:27;35.00;;;6.57;;
77174;SDS011;66153;53.488;10.244;2022-12-26T03:23:53;49.90;;;8.23;;
77174;SDS011;66153;53.488;10.244;2022-12-26T03:27:37;67.88;;;8.77;;
77174;SDS011;66153;53.488;10.244;2022-12-26T03:31:03;63.55;;;8.63;;
77174;SDS011;66153;53.488;10.244;2022-12-26T03:34:29;100.63;;;10.27;;
77174;SDS011;66153;53.488;10.244;2022-12-26T03:37:55;100.78;;;11.48;;
77174;SDS011;66153;53.488;10.244;2022-12-26T03:46:00;124.50;;;12.50;;
77174;SDS011;66153;53.488;10.244;2022-12-26T03:49:58;92.60;;;10.52;;
77174;SDS011;66153;53.488;10.244;2022-12-26T03:53:46;55.13;;;7.35;;
77174;SDS011;66153;53.488;10.244;2022-12-26T03:57:38;87.68;;;10.23;;
77174;SDS011;66153;53.488;10.244;2022-12-26T04:01:23;85.07;;;10.45;;
77174;SDS011;66153;53.488;10.244;2022-12-26T04:05:09;70.07;;;8.57;;
77174;SDS011;66153;53.488;10.244;2022-12-26T04:09:01;43.00;;;7.32;;
77174;SDS011;66153;53.488;10.244;2022-12-26T04:12:49;86.68;;;8.77;;
77174;SDS011;66153;53.488;10.244;2022-12-26T04:16:45;55.60;;;7.20;;
77174;SDS011;66153;53.488;10.244;2022-12-26T04:29:04;96.93;;;10.82;;
77174;SDS011;66153;53.488;10.244;2022-12-26T04:32:47;59.42;;;9.68;;
77174;SDS011;66153;53.488;10.244;2022-12-26T04:36:38;53.38;;;8.90;;
77174;SDS011;66153;53.488;10.244;2022-12-26T04:40:23;61.28;;;9.15;;
77174;SDS011;66153;53.488;10.244;2022-12-26T04:44:07;39.40;;;8.52;;
77174;SDS011;66153;53.488;10.244;2022-12-26T04:47:32;71.55;;;9.55;;
77174;SDS011;66153;53.488;10.244;2022-12-26T04:51:15;67.53;;;10.23;;
77174;SDS011;66153;53.488;10.244;2022-12-26T04:54:39;63.47;;;9.05;;
77174;SDS011;66153;53.488;10.244;2022-12-26T04:58:03;65.65;;;9.45;;
77174;SDS011;66153;53.488;10.244;2022-12-26T05:01:27;66.90;;;11.25;;
77174;SDS011;66153;53.488;10.244;2022-12-26T05:05:09;77.40;;;9.80;;
77174;SDS011;66153;53.488;10.244;2022-12-26T05:08:52;37.95;;;7.75;;
77174;SDS011;66153;53.488;10.244;2022-12-26T05:12:16;46.28;;;8.85;;
77174;SDS011;66153;53.488;10.244;2022-12-26T05:15:40;45.25;;;8.52;;
77174;SDS011;66153;53.488;10.244;2022-12-26T05:19:23;33.60;;;7.70;;
77174;SDS011;66153;53.488;10.244;2022-12-26T05:23:07;40.60;;;8.65;;
77174;SDS011;66153;53.488;10.244;2022-12-26T05:26:53;29.80;;;9.27;;
77174;SDS011;66153;53.488;10.244;2022-12-26T05:30:35;29.88;;;9.45;;
77174;SDS011;66153;53.488;10.244;2022-12-26T05:33:59;27.42;;;9.10;;
77174;SDS011;66153;53.488;10.244;2022-12-26T05:37:23;25.25;;;8.73;;
77174;SDS011;66153;53.488;10.244;2022-12-26T05:40:46;29.55;;;9.15;;
77174;SDS011;66153;53.488;10.244;2022-12-26T05:44:10;28.15;;;10.05;;
77174;SDS011;66153;53.488;10.244;2022-12-26T05:47:34;25.30;;;8.70;;
77174;SDS011;66153;53.488;10.244;2022-12-26T05:50:59;27.05;;;8.95;;
77174;SDS011;66153;53.488;10.244;2022-12-26T05:54:23;27.50;;;9.88;;
77174;SDS011;66153;53.488;10.244;2022-12-26T05:57:48;25.23;;;8.63;;
77174;SDS011;66153;53.488;10.244;2022-12-26T06:01:13;20.98;;;8.57;;
77174;SDS011;66153;53.488;10.244;2022-12-26T06:04:37;21.10;;;8.05;;
77174;SDS011;66153;53.488;10.244;2022-12-26T06:08:01;24.42;;;8.13;;
77174;SDS011;66153;53.488;10.244;2022-12-26T06:11:25;25.15;;;8.02;;
77174;SDS011;66153;53.488;10.244;2022-12-26T06:14:49;22.38;;;7.75;;
77174;SDS011;66153;53.488;10.244;2022-12-26T06:18:13;20.88;;;8.30;;
77174;SDS011;66153;53.488;10.244;2022-12-26T06:21:36;17.38;;;7.70;;
77174;SDS011;66153;53.488;10.244;2022-12-26T06:25:00;20.48;;;7.88;;
77174;SDS011;66153;53.488;10.244;2022-12-26T06:28:24;23.33;;;7.72;;
77174;SDS011;66153;53.488;10.244;2022-12-26T06:31:48;23.13;;;8.25;;
77174;SDS011;66153;53.488;10.244;2022-12-26T06:35:12;20.15;;;7.63;;
77174;SDS011;66153;53.488;10.244;2022-12-26T06:38:37;16.75;;;6.65;;
77174;SDS011;66153;53.488;10.244;2022-12-26T06:42:01;20.23;;;7.82;;
77174;SDS011;66153;53.488;10.244;2022-12-26T06:45:25;22.33;;;7.65;;
77174;SDS011;66153;53.488;10.244;2022-12-26T06:48:49;21.30;;;7.72;;
77174;SDS011;66153;53.488;10.244;2022-12-26T06:52:13;19.98;;;7.47;;
77174;SDS011;66153;53.488;10.244;2022-12-26T06:55:37;16.02;;;6.93;;
77174;SDS011;66153;53.488;10.244;2022-12-26T06:59:02;15.93;;;6.57;;
77174;SDS011;66153;53.488;10.244;2022-12-26T07:02:26;16.58;;;6.85;;
77174;SDS011;66153;53.488;10.244;2022-12-26T07:05:51;18.45;;;7.07;;
77174;SDS011;66153;53.488;10.244;2022-12-26T07:09:16;17.60;;;7.28;;
77174;SDS011;66153;53.488;10.244;2022-12-26T07:12:40;16.13;;;7.20;;
77174;SDS011;66153;53.488;10.244;2022-12-26T07:16:04;13.90;;;6.43;;
77174;SDS011;66153;53.488;10.244;2022-12-26T07:19:28;14.75;;;6.35;;
77174;SDS011;66153;53.488;10.244;2022-12-26T07:22:53;14.35;;;6.45;;
77174;SDS011;66153;53.488;10.244;2022-12-26T07:26:17;13.07;;;6.45;;
77174;SDS011;66153;53.488;10.244;2022-12-26T07:29:41;14.13;;;6.05;;
77174;SDS011;66153;53.488;10.244;2022-12-26T07:33:09;13.38;;;6.20;;
77174;SDS011;66153;53.488;10.244;2022-12-26T07:36:33;14.30;;;6.43;;
77174;SDS011;66153;53.488;10.244;2022-12-26T07:39:57;13.98;;;6.30;;
77174;SDS011;66153;53.488;10.244;2022-12-26T07:43:21;15.02;;;6.82;;
77174;SDS011;66153;53.488;10.244;2022-12-26T07:46:45;17.25;;;7.28;;
77174;SDS011;66153;53.488;10.244;2022-12-26T07:50:09;17.27;;;7.35;;
77174;SDS011;66153;53.488;10.244;2022-12-26T07:53:33;20.05;;;7.82;;
77174;SDS011;66153;53.488;10.244;2022-12-26T07:56:57;16.33;;;7.07;;
77174;SDS011;66153;53.488;10.244;2022-12-26T08:00:21;21.05;;;8.95;;
77174;SDS011;66153;53.488;10.244;2022-12-26T08:03:46;19.38;;;8.52;;
77174;SDS011;66153;53.488;10.244;2022-12-26T08:07:10;23.48;;;9.57;;
77174;SDS011;66153;53.488;10.244;2022-12-26T08:10:34;23.90;;;10.45;;
77174;SDS011;66153;53.488;10.244;2022-12-26T08:13:59;26.75;;;10.52;;
77174;SDS011;66153;53.488;10.244;2022-12-26T08:17:23;23.98;;;9.85;;
77174;SDS011;66153;53.488;10.244;2022-12-26T08:20:47;23.70;;;9.88;;
77174;SDS011;66153;53.488;10.244;2022-12-26T08:24:11;22.90;;;9.70;;
77174;SDS011;66153;53.488;10.244;2022-12-26T08:27:35;24.10;;;9.93;;
77174;SDS011;66153;53.488;10.244;2022-12-26T08:30:59;22.73;;;10.13;;
77174;SDS011;66153;53.488;10.244;2022-12-26T08:34:33;23.13;;;10.50;;
77174;SDS011;66153;53.488;10.244;2022-12-26T08:37:58;25.73;;;10.43;;
77174;SDS011;66153;53.488;10.244;2022-12-26T08:41:22;26.33;;;10.07;;
77174;SDS011;66153;53.488;10.244;2022-12-26T08:44:46;25.33;;;10.68;;
77174;SDS011;66153;53.488;10.244;2022-12-26T08:48:10;26.73;;;11.23;;
77174;SDS011;66153;53.488;10.244;2022-12-26T08:51:34;22.98;;;10.05;;
77174;SDS011;66153;53.488;10.244;2022-12-26T08:54:59;25.27;;;11.68;;
77174;SDS011;66153;53.488;10.244;2022-12-26T08:58:23;27.90;;;11.85;;
77174;SDS011;66153;53.488;10.244;2022-12-26T09:01:47;27.40;;;12.40;;
77174;SDS011;66153;53.488;10.244;2022-12-26T09:05:11;26.13;;;11.68;;
77174;SDS011;66153;53.488;10.244;2022-12-26T09:08:36;27.33;;;11.90;;
77174;SDS011;66153;53.488;10.244;2022-12-26T09:12:00;27.02;;;11.18;;
77174;SDS011;66153;53.488;10.244;2022-12-26T09:15:24;25.77;;;11.20;;
77174;SDS011;66153;53.488;10.244;2022-12-26T09:18:54;24.35;;;10.90;;
77174;SDS011;66153;53.488;10.244;2022-12-26T09:22:18;23.30;;;10.02;;
77174;SDS011;66153;53.488;10.244;2022-12-26T09:25:42;25.05;;;10.60;;
77174;SDS011;66153;53.488;10.244;2022-12-26T09:29:06;26.75;;;11.70;;
77174;SDS011;66153;53.488;10.244;2022-12-26T09:32:31;28.52;;;11.45;;
77174;SDS011;66153;53.488;10.244;2022-12-26T09:35:57;25.45;;;10.07;;
77174;SDS011;66153;53.488;10.244;2022-12-26T09:39:21;22.50;;;10.70;;
77174;SDS011;66153;53.488;10.244;2022-12-26T09:42:56;23.73;;;10.38;;
77174;SDS011;66153;53.488;10.244;2022-12-26T09:46:31;19.98;;;9.18;;
77174;SDS011;66153;53.488;10.244;2022-12-26T09:53:30;20.25;;;8.68;;
77174;SDS011;66153;53.488;10.244;2022-12-26T09:56:58;19.95;;;9.02;;
77174;SDS011;66153;53.488;10.244;2022-12-26T10:00:29;21.65;;;9.55;;
77174;SDS011;66153;53.488;10.244;2022-12-26T10:03:55;22.33;;;8.98;;
77174;SDS011;66153;53.488;10.244;2022-12-26T10:07:24;19.63;;;8.38;;
77174;SDS011;66153;53.488;10.244;2022-12-26T10:11:00;16.95;;;7.85;;
77174;SDS011;66153;53.488;10.244;2022-12-26T10:22:18;18.85;;;8.35;;
77174;SDS011;66153;53.488;10.244;2022-12-26T10:25:56;17.25;;;8.13;;
77174;SDS011;66153;53.488;10.244;2022-12-26T10:29:39;19.85;;;9.27;;
77174;SDS011;66153;53.488;10.244;2022-12-26T10:33:08;19.42;;;8.77;;
77174;SDS011;66153;53.488;10.244;2022-12-26T10:36:43;20.30;;;8.57;;
77174;SDS011;66153;53.488;10.244;2022-12-26T10:40:53;19.80;;;7.75;;
77174;SDS011;66153;53.488;10.244;2022-12-26T10:47:41;20.92;;;8.02;;
77174;SDS011;66153;53.488;10.244;2022-12-26T10:51:06;18.38;;;7.97;;
77174;SDS011;66153;53.488;10.244;2022-12-26T10:54:31;18.60;;;8.52;;
77174;SDS011;66153;53.488;10.244;2022-12-26T10:57:57;17.35;;;8.23;;
77174;SDS011;66153;53.488;10.244;2022-12-26T11:05:03;18.77;;;8.52;;
77174;SDS011;66153;53.488;10.244;2022-12-26T11:08:37;18.52;;;8.80;;
77174;SDS011;66153;53.488;10.244;2022-12-26T11:12:19;18.20;;;8.85;;
77174;SDS011;66153;53.488;10.244;2022-12-26T11:15:48;18.00;;;8.13;;
77174;SDS011;66153;53.488;10.244;2022-12-26T11:19:30;20.75;;;9.63;;
77174;SDS011;66153;53.488;10.244;2022-12-26T11:22:56;24.10;;;8.40;;
77174;SDS011;66153;53.488;10.244;2022-12-26T11:26:40;17.35;;;7.78;;
77174;SDS011;66153;53.488;10.244;2022-12-26T11:30:19;20.38;;;8.65;;
77174;SDS011;66153;53.488;10.244;2022-12-26T11:33:50;21.67;;;9.40;;
77174;SDS011;66153;53.488;10.244;2022-12-26T11:37:27;17.75;;;8.10;;
77174;SDS011;66153;53.488;10.244;2022-12-26T11:41:06;17.13;;;8.02;;
77174;SDS011;66153;53.488;10.244;2022-12-26T11:44:35;17.00;;;7.10;;
77174;SDS011;66153;53.488;10.244;2022-12-26T11:48:02;15.38;;;6.60;;
77174;SDS011;66153;53.488;10.244;2022-12-26T11:51:32;15.00;;;7.00;;
77174;SDS011;66153;53.488;10.244;2022-12-26T11:54:58;15.48;;;7.13;;
77174;SDS011;66153;53.488;10.244;2022-12-26T11:58:24;14.85;;;6.75;;
77174;SDS011;66153;53.488;10.244;2022-12-26T12:02:15;11.85;;;5.97;;
77174;SDS011;66153;53.488;10.244;2022-12-26T12:09:40;13.63;;;5.97;;
77174;SDS011;66153;53.488;10.244;2022-12-26T12:13:20;15.50;;;5.95;;
77174;SDS011;66153;53.488;10.244;2022-12-26T12:24:44;15.60;;;7.60;;
77174;SDS011;66153;53.488;10.244;2022-12-26T12:28:24;16.02;;;7.57;;
77174;SDS011;66153;53.488;10.244;2022-12-26T12:35:40;15.15;;;7.03;;
77174;SDS011;66153;53.488;10.244;2022-12-26T12:40:14;16.55;;;7.00;;
77174;SDS011;66153;53.488;10.244;2022-12-26T12:47:57;11.43;;;5.75;;
77174;SDS011;66153;53.488;10.244;2022-12-26T13:02:34;11.48;;;6.03;;
77174;SDS011;66153;53.488;10.244;2022-12-26T13:06:04;12.23;;;5.93;;
77174;SDS011;66153;53.488;10.244;2022-12-26T13:09:33;13.18;;;5.93;;
77174;SDS011;66153;53.488;10.244;2022-12-26T13:13:48;8.48;;;4.15;;
77174;SDS011;66153;53.488;10.244;2022-12-26T13:17:00;11.02;;;5.32;;
77174;SDS011;66153;53.488;10.244;2022-12-26T13:20:41;12.00;;;5.78;;
77174;SDS011;66153;53.488;10.244;2022-12-26T13:27:39;9.38;;;4.25;;
77174;SDS011;66153;53.488;10.244;2022-12-26T13:31:05;6.60;;;3.50;;
77174;SDS011;66153;53.488;10.244;2022-12-26T13:34:29;7.45;;;3.38;;
77174;SDS011;66153;53.488;10.244;2022-12-26T13:38:12;5.32;;;3.65;;
77174;SDS011;66153;53.488;10.244;2022-12-26T13:41:37;4.88;;;2.63;;
77174;SDS011;66153;53.488;10.244;2022-12-26T13:49:37;5.38;;;2.20;;
77174;SDS011;66153;53.488;10.244;2022-12-26T13:56:56;1.33;;;0.60;;
77174;SDS011;66153;53.488;10.244;2022-12-26T14:00:42;2.45;;;0.57;;
77174;SDS011;66153;53.488;10.244;2022-12-26T14:04:44;1.30;;;0.50;;
77174;SDS011;66153;53.488;10.244;2022-12-26T14:38:25;2.45;;;0.45;;
77174;SDS011;66153;53.488;10.244;2022-12-26T14:45:39;3.80;;;0.90;;
77174;SDS011;66153;53.488;10.244;2022-12-26T14:49:17;2.60;;;0.90;;
77174;SDS011;66153;53.488;10.244;2022-12-26T14:56:58;1.50;;;0.60;;
77174;SDS011;66153;53.488;10.244;2022-12-26T15:03:58;3.65;;;0.60;;
77174;SDS011;66153;53.488;10.244;2022-12-26T15:29:49;6.70;;;0.80;;
77174;SDS011;66153;53.488;10.244;2022-12-26T15:33:51;4.13;;;0.98;;
77174;SDS011;66153;53.488;10.244;2022-12-26T15:37:38;5.88;;;1.08;;
77174;SDS011;66153;53.488;10.244;2022-12-26T15:49:07;8.15;;;1.60;;
77174;SDS011;66153;53.488;10.244;2022-12-26T15:52:46;7.45;;;1.33;;
77174;SDS011;66153;53.488;10.244;2022-12-26T16:03:42;8.45;;;1.40;;
77174;SDS011;66153;53.488;10.244;2022-12-26T16:07:31;8.25;;;1.17;;
77174;SDS011;66153;53.488;10.244;2022-12-26T16:14:58;7.15;;;1.40;;
77174;SDS011;66153;53.488;10.244;2022-12-26T16:21:53;5.15;;;1.85;;
77174;SDS011;66153;53.488;10.244;2022-12-26T16:25:22;8.07;;;2.60;;
77174;SDS011;66153;53.488;10.244;2022-12-26T16:28:50;5.30;;;1.55;;
77174;SDS011;66153;53.488;10.244;2022-12-26T16:32:33;6.97;;;1.42;;
77174;SDS011;66153;53.488;10.244;2022-12-26T16:39:31;5.72;;;1.08;;
77174;SDS011;66153;53.488;10.244;2022-12-26T16:43:22;4.55;;;1.60;;
77174;SDS011;66153;53.488;10.244;2022-12-26T16:47:12;7.15;;;1.83;;
77174;SDS011;66153;53.488;10.244;2022-12-26T16:50:44;7.70;;;1.90;;
77174;SDS011;66153;53.488;10.244;2022-12-26T16:57:57;11.07;;;2.70;;
77174;SDS011;66153;53.488;10.244;2022-12-26T17:01:33;3.30;;;1.20;;
77174;SDS011;66153;53.488;10.244;2022-12-26T17:05:01;11.30;;;1.73;;
77174;SDS011;66153;53.488;10.244;2022-12-26T17:08:30;12.70;;;1.73;;
77174;SDS011;66153;53.488;10.244;2022-12-26T17:12:02;8.27;;;1.75;;
77174;SDS011;66153;53.488;10.244;2022-12-26T17:15:35;11.13;;;2.03;;
77174;SDS011;66153;53.488;10.244;2022-12-26T17:19:18;7.55;;;1.50;;
77174;SDS011;66153;53.488;10.244;2022-12-26T17:22:52;6.75;;;2.25;;
77174;SDS011;66153;53.488;10.244;2022-12-26T17:26:26;11.43;;;2.65;;
77174;SDS011;66153;53.488;10.244;2022-12-26T17:33:18;6.40;;;3.00;;
77174;SDS011;66153;53.488;10.244;2022-12-26T17:36:49;12.15;;;3.13;;
77174;SDS011;66153;53.488;10.244;2022-12-26T17:43:40;11.85;;;3.13;;
77174;SDS011;66153;53.488;10.244;2022-12-26T17:50:38;7.55;;;2.80;;
77174;SDS011;66153;53.488;10.244;2022-12-26T17:54:03;6.72;;;2.55;;
77174;SDS011;66153;53.488;10.244;2022-12-26T17:57:27;11.25;;;2.22;;
77174;SDS011;66153;53.488;10.244;2022-12-26T18:00:52;7.05;;;2.05;;
77174;SDS011;66153;53.488;10.244;2022-12-26T18:04:16;11.27;;;2.30;;
77174;SDS011;66153;53.488;10.244;2022-12-26T18:07:40;6.85;;;2.03;;
77174;SDS011;66153;53.488;10.244;2022-12-26T18:11:07;8.38;;;1.67;;
77174;SDS011;66153;53.488;10.244;2022-12-26T18:14:31;6.93;;;2.03;;
77174;SDS011;66153;53.488;10.244;2022-12-26T18:17:55;9.18;;;1.70;;
77174;SDS011;66153;53.488;10.244;2022-12-26T18:21:19;7.22;;;1.45;;
77174;SDS011;66153;53.488;10.244;2022-12-26T18:24:43;8.00;;;1.83;;
77174;SDS011;66153;53.488;10.244;2022-12-26T18:28:13;7.57;;;1.70;;
77174;SDS011;66153;53.488;10.244;2022-12-26T18:31:38;7.38;;;1.63;;
77174;SDS011;66153;53.488;10.244;2022-12-26T18:35:02;5.40;;;1.70;;
77174;SDS011;66153;53.488;10.244;2022-12-26T18:38:26;8.35;;;1.75;;
77174;SDS011;66153;53.488;10.244;2022-12-26T18:41:49;11.30;;;2.05;;
77174;SDS011;66153;53.488;10.244;2022-12-26T18:45:14;8.05;;;2.53;;
77174;SDS011;66153;53.488;10.244;2022-12-26T18:48:47;9.70;;;2.33;;
77174;SDS011;66153;53.488;10.244;2022-12-26T18:52:12;10.50;;;1.90;;
77174;SDS011;66153;53.488;10.244;2022-12-26T18:55:36;8.88;;;2.15;;
77174;SDS011;66153;53.488;10.244;2022-12-26T18:59:00;8.93;;;2.20;;
77174;SDS011;66153;53.488;10.244;2022-12-26T19:02:24;10.57;;;1.92;;
77174;SDS011;66153;53.488;10.244;2022-12-26T19:05:48;9.05;;;2.15;;
77174;SDS011;66153;53.488;10.244;2022-12-26T19:09:12;8.70;;;1.60;;
77174;SDS011;66153;53.488;10.244;2022-12-26T19:12:36;7.07;;;1.73;;
77174;SDS011;66153;53.488;10.244;2022-12-26T19:16:00;8.45;;;2.00;;
77174;SDS011;66153;53.488;10.244;2022-12-26T19:19:24;13.98;;;3.20;;
77174;SDS011;66153;53.488;10.244;2022-12-26T19:22:49;9.00;;;1.50;;
77174;SDS011;66153;53.488;10.244;2022-12-26T19:26:15;7.13;;;1.35;;
77174;SDS011;66153;53.488;10.244;2022-12-26T19:29:39;9.35;;;1.73;;
77174;SDS011;66153;53.488;10.244;2022-12-26T19:33:03;10.32;;;1.63;;
77174;SDS011;66153;53.488;10.244;2022-12-26T19:36:27;7.35;;;1.60;;
77174;SDS011;66153;53.488;10.244;2022-12-26T19:39:53;11.40;;;2.10;;
77174;SDS011;66153;53.488;10.244;2022-12-26T19:43:16;6.38;;;2.00;;
77174;SDS011;66153;53.488;10.244;2022-12-26T19:46:40;7.80;;;1.60;;
77174;SDS011;66153;53.488;10.244;2022-12-26T19:50:04;7.15;;;1.40;;
77174;SDS011;66153;53.488;10.244;2022-12-26T19:53:33;12.02;;;1.88;;
77174;SDS011;66153;53.488;10.244;2022-12-26T19:56:56;7.70;;;1.65;;
77174;SDS011;66153;53.488;10.244;2022-12-26T20:00:20;6.40;;;2.22;;
77174;SDS011;66153;53.488;10.244;2022-12-26T20:03:46;9.90;;;1.98;;
77174;SDS011;66153;53.488;10.244;2022-12-26T20:07:10;11.63;;;1.75;;
77174;SDS011;66153;53.488;10.244;2022-12-26T20:10:34;11.38;;;1.50;;
77174;SDS011;66153;53.488;10.244;2022-12-26T20:14:00;8.10;;;1.90;;
77174;SDS011;66153;53.488;10.244;2022-12-26T20:17:24;6.78;;;1.77;;
77174;SDS011;66153;53.488;10.244;2022-12-26T20:20:51;9.02;;;1.30;;
77174;SDS011;66153;53.488;10.244;2022-12-26T20:24:16;8.07;;;1.45;;
77174;SDS011;66153;53.488;10.244;2022-12-26T20:27:40;4.93;;;1.55;;
77174;SDS011;66153;53.488;10.244;2022-12-26T20:31:05;6.90;;;1.70;;
77174;SDS011;66153;53.488;10.244;2022-12-26T20:34:29;9.38;;;1.80;;
77174;SDS011;66153;53.488;10.244;2022-12-26T20:37:53;12.10;;;2.10;;
77174;SDS011;66153;53.488;10.244;2022-12-26T20:41:18;11.10;;;1.90;;
77174;SDS011;66153;53.488;10.244;2022-12-26T20:44:43;12.73;;;2.47;;
77174;SDS011;66153;53.488;10.244;2022-12-26T20:48:07;9.48;;;2.15;;
77174;SDS011;66153;53.488;10.244;2022-12-26T20:51:32;8.68;;;1.92;;
77174;SDS011;66153;53.488;10.244;2022-12-26T20:54:56;6.82;;;1.40;;
77174;SDS011;66153;53.488;10.244;2022-12-26T20:58:23;5.72;;;1.30;;
77174;SDS011;66153;53.488;10.244;2022-12-26T21:01:47;11.85;;;1.95;;
77174;SDS011;66153;53.488;10.244;2022-12-26T21:05:11;5.47;;;1.75;;
77174;SDS011;66153;53.488;10.244;2022-12-26T21:08:37;6.03;;;1.63;;
77174;SDS011;66153;53.488;10.244;2022-12-26T21:12:01;5.40;;;1.60;;
77174;SDS011;66153;53.488;10.244;2022-12-26T21:15:24;7.50;;;1.13;;
77174;SDS011;66153;53.488;10.244;2022-12-26T21:18:50;4.55;;;1.40;;
77174;SDS011;66153;53.488;10.244;2022-12-26T21:22:14;6.45;;;1.40;;
77174;SDS011;66153;53.488;10.244;2022-12-26T21:25:37;9.15;;;2.03;;
77174;SDS011;66153;53.488;10.244;2022-12-26T21:29:04;7.13;;;1.48;;
77174;SDS011;66153;53.488;10.244;2022-12-26T21:32:28;4.25;;;1.20;;
77174;SDS011;66153;53.488;10.244;2022-12-26T21:35:52;8.82;;;1.45;;
77174;SDS011;66153;53.488;10.244;2022-12-26T21:39:36;9.35;;;1.20;;
77174;SDS011;66153;53.488;10.244;2022-12-26T21:43:00;8.73;;;1.33;;
77174;SDS011;66153;53.488;10.244;2022-12-26T21:46:24;7.63;;;1.50;;
77174;SDS011;66153;53.488;10.244;2022-12-26T21:49:47;6.80;;;1.10;;
77174;SDS011;66153;53.488;10.244;2022-12-26T21:53:11;9.63;;;1.83;;
77174;SDS011;66153;53.488;10.244;2022-12-26T21:56:54;6.25;;;1.75;;
77174;SDS011;66153;53.488;10.244;2022-12-26T22:00:18;5.32;;;1.33;;
77174;SDS011;66153;53.488;10.244;2022-12-26T22:03:42;6.68;;;1.30;;
77174;SDS011;66153;53.488;10.244;2022-12-26T22:07:06;7.05;;;1.40;;
77174;SDS011;66153;53.488;10.244;2022-12-26T22:10:35;6.03;;;1.70;;
77174;SDS011;66153;53.488;10.244;2022-12-26T22:14:18;5.68;;;1.45;;
77174;SDS011;66153;53.488;10.244;2022-12-26T22:18:00;4.53;;;1.58;;
77174;SDS011;66153;53.488;10.244;2022-12-26T22:21:24;7.72;;;1.48;;
77174;SDS011;66153;53.488;10.244;2022-12-26T22:24:48;5.40;;;1.02;;
77174;SDS011;66153;53.488;10.244;2022-12-26T22:28:18;7.47;;;1.70;;
77174;SDS011;66153;53.488;10.244;2022-12-26T22:31:42;5.57;;;1.42;;
77174;SDS011;66153;53.488;10.244;2022-12-26T22:35:06;6.90;;;1.98;;
77174;SDS011;66153;53.488;10.244;2022-12-26T22:38:32;12.15;;;1.88;;
77174;SDS011;66153;53.488;10.244;2022-12-26T22:41:56;6.15;;;1.48;;
77174;SDS011;66153;53.488;10.244;2022-12-26T22:45:20;11.38;;;1.85;;
77174;SDS011;66153;53.488;10.244;2022-12-26T22:48:43;5.68;;;1.42;;
77174;SDS011;66153;53.488;10.244;2022-12-26T22:52:07;5.18;;;1.30;;
77174;SDS011;66153;53.488;10.244;2022-12-26T22:55:31;4.47;;;1.30;;
77174;SDS011;66153;53.488;10.244;2022-12-26T22:58:56;5.25;;;1.23;;
77174;SDS011;66153;53.488;10.244;2022-12-26T23:02:20;8.40;;;1.40;;
77174;SDS011;66153;53.488;10.244;2022-12-26T23:05:45;4.45;;;1.10;;
77174;SDS011;66153;53.488;10.244;2022-12-26T23:09:13;7.47;;;1.50;;
77174;SDS011;66153;53.488;10.244;2022-12-26T23:12:43;9.43;;;1.38;;
77174;SDS011;66153;53.488;10.244;2022-12-26T23:16:24;5.18;;;1.30;;
77174;SDS011;66153;53.488;10.244;2022-12-26T23:20:10;6.47;;;1.35;;
77174;SDS011;66153;53.488;10.244;2022-12-26T23:24:23;4.22;;;0.88;;
77174;SDS011;66153;53.488;10.244;2022-12-26T23:27:47;4.60;;;1.63;;
77174;SDS011;66153;53.488;10.244;2022-12-26T23:31:29;5.55;;;1.58;;
77174;SDS011;66153;53.488;10.244;2022-12-26T23:34:53;7.95;;;2.08;;
77174;SDS011;66153;53.488;10.244;2022-12-26T23:38:17;6.20;;;1.92;;
77174;SDS011;66153;53.488;10.244;2022-12-26T23:41:41;5.10;;;1.58;;